createdAt,value
2023-05-31T00:00:11.289Z,5.10
2023-05-31T00:02:37.891Z,5.10
2023-05-31T00:05:04.785Z,4.00
2023-05-31T00:07:31.424Z,5.15
2023-05-31T00:09:58.009Z,5.03
2023-05-31T00:12:24.695Z,5.25
2023-05-31T00:14:51.294Z,5.30
2023-05-31T00:19:47.439Z,4.90
2023-05-31T00:22:16.358Z,5.50
2023-05-31T00:24:42.985Z,4.85
2023-05-31T00:27:09.626Z,5.38
2023-05-31T00:29:36.383Z,4.97
2023-05-31T00:32:03.191Z,4.93
2023-05-31T00:34:29.836Z,5.63
2023-05-31T00:36:56.511Z,5.43
2023-05-31T00:39:23.376Z,4.60
2023-05-31T00:41:50.001Z,5.47
2023-05-31T00:44:16.743Z,4.75
2023-05-31T00:46:43.410Z,5.50
2023-05-31T00:49:10.303Z,5.38
2023-05-31T00:51:37.614Z,5.57
2023-05-31T00:54:04.454Z,5.70
2023-05-31T00:56:31.195Z,5.40
2023-05-31T00:58:58.326Z,5.72
2023-05-31T01:01:28.523Z,6.18
2023-05-31T01:03:56.354Z,6.18
2023-05-31T01:06:24.576Z,6.85
2023-05-31T01:08:52.470Z,5.32
2023-05-31T01:11:52.417Z,6.30
2023-05-31T01:14:46.757Z,6.07
2023-05-31T01:19:49.579Z,6.20
2023-05-31T01:22:28.928Z,6.68
2023-05-31T01:25:10.791Z,6.88
2023-05-31T01:27:37.958Z,5.93
2023-05-31T01:30:06.028Z,5.75
2023-05-31T01:32:33.150Z,6.60
2023-05-31T01:35:02.791Z,6.15
2023-05-31T01:37:29.457Z,6.55
2023-05-31T01:39:56.495Z,6.60
2023-05-31T01:42:24.056Z,6.82
2023-05-31T01:44:51.718Z,6.00
2023-05-31T01:47:18.607Z,6.05
2023-05-31T01:49:45.505Z,6.45
2023-05-31T01:52:15.268Z,6.32
2023-05-31T01:54:42.082Z,6.63
2023-05-31T01:57:09.159Z,6.30
2023-05-31T01:59:37.988Z,5.85
2023-05-31T02:02:07.167Z,6.45
2023-05-31T02:04:33.953Z,6.35
2023-05-31T02:07:01.286Z,6.55
2023-05-31T02:09:28.082Z,5.68
2023-05-31T02:11:55.531Z,7.28
2023-05-31T02:14:22.153Z,7.32
2023-05-31T02:16:48.787Z,6.63
2023-05-31T02:19:15.530Z,5.78
2023-05-31T02:21:42.271Z,5.95
2023-05-31T02:24:09.576Z,5.65
2023-05-31T02:26:37.406Z,6.05
2023-05-31T02:29:04.234Z,6.07
2023-05-31T02:31:31.140Z,5.90
2023-05-31T02:33:58.014Z,6.05
2023-05-31T02:36:29.735Z,6.95
2023-05-31T02:38:56.809Z,6.03
2023-05-31T02:41:23.607Z,6.38
2023-05-31T02:43:50.361Z,5.95
2023-05-31T02:46:17.035Z,6.40
2023-05-31T02:48:44.410Z,6.47
2023-05-31T02:51:11.341Z,5.97
2023-05-31T02:54:03.619Z,6.65
2023-05-31T02:56:32.212Z,6.22
2023-05-31T02:59:16.950Z,6.40
2023-05-31T03:01:58.038Z,6.82
2023-05-31T03:04:43.159Z,7.32
2023-05-31T03:07:09.999Z,6.47
2023-05-31T03:09:37.494Z,6.75
2023-05-31T03:12:06.296Z,6.60
2023-05-31T03:14:34.145Z,5.85
2023-05-31T03:17:01.842Z,6.88
2023-05-31T03:19:28.779Z,6.93
2023-05-31T03:21:55.996Z,6.32
2023-05-31T03:24:24.717Z,7.07
2023-05-31T03:26:51.581Z,6.70
2023-05-31T03:29:18.970Z,7.40
2023-05-31T03:31:47.092Z,6.78
2023-05-31T03:34:14.078Z,6.47
2023-05-31T03:36:42.093Z,7.45
2023-05-31T03:39:24.054Z,6.82
2023-05-31T03:41:50.762Z,7.63
2023-05-31T03:44:17.393Z,7.25
2023-05-31T03:46:44.123Z,7.50
2023-05-31T03:49:12.008Z,7.53
2023-05-31T03:51:39.345Z,7.47
2023-05-31T03:54:06.756Z,7.78
2023-05-31T03:56:33.424Z,7.70
2023-05-31T03:59:00.516Z,7.20
2023-05-31T04:01:28.111Z,7.38
2023-05-31T04:03:54.852Z,7.25
2023-05-31T04:06:21.907Z,6.95
2023-05-31T04:08:48.938Z,7.07
2023-05-31T04:11:15.628Z,6.88
2023-05-31T04:13:42.343Z,7.10
2023-05-31T04:16:09.099Z,7.40
2023-05-31T04:18:36.262Z,8.55
2023-05-31T04:21:03.354Z,8.25
2023-05-31T04:23:31.024Z,7.85
2023-05-31T04:25:59.035Z,8.18
2023-05-31T04:28:25.797Z,7.88
2023-05-31T04:30:53.576Z,9.18
2023-05-31T04:33:20.713Z,7.93
2023-05-31T04:35:47.774Z,8.30
2023-05-31T04:38:15.338Z,7.88
2023-05-31T04:40:43.371Z,8.18
2023-05-31T04:43:10.084Z,9.05
2023-05-31T04:45:37.749Z,9.65
2023-05-31T04:48:04.712Z,9.75
2023-05-31T04:50:31.673Z,9.02
2023-05-31T04:52:59.961Z,9.88
2023-05-31T04:55:27.504Z,10.05
2023-05-31T04:57:56.611Z,10.55
2023-05-31T05:00:23.559Z,9.63
2023-05-31T05:02:59.963Z,10.70
2023-05-31T05:05:27.094Z,11.70
2023-05-31T05:07:53.974Z,11.10
2023-05-31T05:10:23.096Z,13.02
2023-05-31T05:12:49.882Z,12.18
2023-05-31T05:15:16.811Z,11.52
2023-05-31T05:17:46.980Z,12.15
2023-05-31T05:20:15.020Z,12.85
2023-05-31T05:22:51.974Z,11.93
2023-05-31T05:25:19.135Z,12.45
2023-05-31T05:27:45.786Z,12.38
2023-05-31T05:30:13.220Z,13.13
2023-05-31T05:32:40.206Z,12.70
2023-05-31T05:35:07.404Z,12.20
2023-05-31T05:37:34.157Z,11.68
2023-05-31T05:40:01.190Z,11.38
2023-05-31T05:42:29.201Z,11.77
2023-05-31T05:44:55.858Z,11.52
2023-05-31T05:47:23.440Z,10.23
2023-05-31T05:49:51.860Z,10.20
2023-05-31T05:52:18.908Z,11.30
2023-05-31T05:54:45.558Z,10.88
2023-05-31T05:57:13.969Z,10.02
2023-05-31T05:59:43.348Z,10.55
2023-05-31T06:02:20.776Z,8.93
2023-05-31T06:04:49.060Z,9.07
2023-05-31T06:07:15.822Z,9.93
2023-05-31T06:09:42.821Z,9.90
2023-05-31T06:12:10.311Z,9.80
2023-05-31T06:14:40.424Z,9.57
2023-05-31T06:17:07.230Z,9.50
2023-05-31T06:19:34.402Z,8.43
2023-05-31T06:22:01.747Z,7.75
2023-05-31T06:24:28.550Z,8.15
2023-05-31T06:26:55.206Z,7.57
2023-05-31T06:29:27.337Z,7.72
2023-05-31T06:31:57.320Z,6.65
2023-05-31T06:34:25.924Z,7.82
2023-05-31T06:36:53.974Z,7.38
2023-05-31T06:39:20.566Z,7.45
2023-05-31T06:41:47.223Z,6.93
2023-05-31T06:44:38.432Z,7.63
2023-05-31T06:50:07.640Z,7.70
2023-05-31T06:52:57.063Z,7.28
2023-05-31T06:55:45.052Z,7.93
2023-05-31T06:58:16.806Z,8.23
2023-05-31T07:00:47.484Z,7.28
2023-05-31T07:03:14.499Z,8.18
2023-05-31T07:05:44.933Z,8.20
2023-05-31T07:08:11.791Z,7.50
2023-05-31T07:10:58.219Z,8.25
2023-05-31T07:13:25.528Z,8.07
2023-05-31T07:15:52.279Z,7.88
2023-05-31T07:18:19.052Z,7.82
2023-05-31T07:20:48.785Z,7.70
2023-05-31T07:23:15.455Z,8.32
2023-05-31T07:25:42.654Z,8.55
2023-05-31T07:28:11.643Z,7.78
2023-05-31T07:30:38.502Z,8.15
2023-05-31T07:33:05.298Z,8.55
2023-05-31T07:35:32.041Z,7.65
2023-05-31T07:37:58.662Z,7.80
2023-05-31T07:40:25.390Z,7.88
2023-05-31T07:42:52.015Z,7.10
2023-05-31T07:45:18.625Z,7.30
2023-05-31T07:47:45.311Z,6.43
2023-05-31T07:50:12.050Z,6.82
2023-05-31T07:52:38.906Z,6.97
2023-05-31T07:55:07.561Z,6.40
2023-05-31T07:57:34.500Z,7.05
2023-05-31T08:00:01.103Z,6.38
2023-05-31T08:02:27.765Z,6.95
2023-05-31T08:04:55.693Z,6.03
2023-05-31T08:07:22.310Z,6.60
2023-05-31T08:09:48.934Z,6.30
2023-05-31T08:12:16.148Z,6.45
2023-05-31T08:14:42.813Z,5.68
2023-05-31T08:17:09.515Z,5.70
2023-05-31T08:19:36.271Z,5.63
2023-05-31T08:22:03.067Z,6.55
2023-05-31T08:24:29.765Z,5.55
2023-05-31T08:26:59.265Z,5.32
2023-05-31T08:29:26.019Z,5.38
2023-05-31T08:31:52.636Z,4.70
2023-05-31T08:34:20.381Z,5.13
2023-05-31T08:36:48.431Z,5.53
2023-05-31T08:39:15.708Z,5.05
2023-05-31T08:42:03.226Z,5.50
2023-05-31T08:44:30.597Z,4.85
2023-05-31T08:47:17.967Z,4.88
2023-05-31T08:49:45.620Z,5.13
2023-05-31T08:52:12.630Z,4.32
2023-05-31T08:54:39.353Z,4.47
2023-05-31T08:57:06.550Z,4.00
2023-05-31T08:59:34.941Z,4.20
2023-05-31T09:02:02.111Z,4.90
2023-05-31T09:04:29.367Z,4.55
2023-05-31T09:06:56.131Z,4.15
2023-05-31T09:09:24.206Z,4.88
2023-05-31T09:11:52.403Z,4.15
2023-05-31T09:14:19.094Z,3.88
2023-05-31T09:16:46.154Z,3.88
2023-05-31T09:19:12.836Z,4.43
2023-05-31T09:21:41.168Z,4.47
2023-05-31T09:24:08.310Z,4.05
2023-05-31T09:26:35.229Z,4.50
2023-05-31T09:29:01.846Z,3.97
2023-05-31T09:31:28.942Z,4.40
2023-05-31T09:33:55.820Z,4.18
2023-05-31T09:36:27.378Z,4.97
2023-05-31T09:39:14.487Z,4.25
2023-05-31T09:41:41.181Z,4.13
2023-05-31T09:44:09.573Z,4.25
2023-05-31T09:46:36.254Z,4.35
2023-05-31T09:49:05.590Z,4.20
2023-05-31T09:51:33.626Z,3.78
2023-05-31T09:54:18.697Z,3.90
2023-05-31T09:56:45.555Z,4.10
2023-05-31T09:59:13.264Z,4.63
2023-05-31T10:01:39.977Z,3.65
2023-05-31T10:04:07.310Z,3.85
2023-05-31T10:06:36.471Z,3.80
2023-05-31T10:09:04.187Z,4.13
2023-05-31T10:11:35.861Z,3.70
2023-05-31T10:14:13.786Z,3.90
2023-05-31T10:16:46.745Z,3.75
2023-05-31T10:19:20.993Z,3.63
2023-05-31T10:21:48.609Z,4.47
2023-05-31T10:24:19.881Z,3.60
2023-05-31T10:27:11.039Z,3.85
2023-05-31T10:29:42.120Z,4.18
2023-05-31T10:32:18.706Z,3.20
2023-05-31T10:34:45.785Z,3.53
2023-05-31T10:37:12.501Z,3.72
2023-05-31T10:40:06.313Z,4.07
2023-05-31T10:45:17.583Z,3.78
2023-05-31T10:47:58.569Z,3.40
2023-05-31T10:50:25.279Z,4.22
2023-05-31T10:52:52.403Z,4.53
2023-05-31T10:55:28.095Z,3.95
2023-05-31T10:57:56.029Z,4.05
2023-05-31T11:00:25.811Z,3.90
2023-05-31T11:02:57.109Z,3.88
2023-05-31T11:05:26.009Z,3.58
2023-05-31T11:07:53.466Z,3.42
2023-05-31T11:10:32.134Z,3.70
2023-05-31T11:13:03.851Z,3.92
2023-05-31T11:15:44.842Z,3.40
2023-05-31T11:18:16.377Z,3.83
2023-05-31T11:20:43.129Z,3.70
2023-05-31T11:23:26.197Z,3.40
2023-05-31T11:26:08.194Z,3.30
2023-05-31T11:28:53.376Z,3.83
2023-05-31T11:31:49.156Z,4.57
2023-05-31T11:34:26.353Z,4.15
2023-05-31T11:36:53.585Z,3.95
2023-05-31T11:39:20.747Z,4.82
2023-05-31T11:41:47.433Z,4.40
2023-05-31T11:44:16.041Z,4.47
2023-05-31T11:46:45.968Z,4.50
2023-05-31T11:49:12.822Z,5.13
2023-05-31T11:51:43.491Z,4.75
2023-05-31T11:54:13.036Z,4.38
2023-05-31T11:56:39.756Z,4.55
2023-05-31T11:59:06.363Z,4.25
2023-05-31T12:01:41.152Z,4.22
2023-05-31T12:04:07.882Z,4.50
2023-05-31T12:06:34.747Z,4.43
2023-05-31T12:09:01.458Z,4.20
2023-05-31T12:11:31.262Z,3.92
2023-05-31T12:13:59.212Z,4.35
2023-05-31T12:16:27.419Z,3.70
2023-05-31T12:18:57.048Z,4.28
2023-05-31T12:21:25.096Z,4.38
2023-05-31T12:23:56.116Z,4.10
2023-05-31T12:26:24.098Z,3.78
2023-05-31T12:28:54.273Z,3.88
2023-05-31T12:31:25.209Z,3.60
2023-05-31T12:34:08.267Z,4.15
2023-05-31T12:36:42.411Z,3.70
2023-05-31T12:39:15.368Z,3.17
2023-05-31T12:41:46.269Z,3.88
2023-05-31T12:44:17.649Z,3.70
2023-05-31T12:46:45.493Z,4.07
2023-05-31T12:49:19.775Z,3.60
2023-05-31T12:51:46.538Z,4.40
2023-05-31T12:54:14.648Z,3.30
2023-05-31T12:56:41.342Z,3.85
2023-05-31T12:59:09.616Z,3.30
2023-05-31T13:01:39.152Z,3.55
2023-05-31T13:04:07.035Z,3.17
2023-05-31T13:06:33.745Z,3.42
2023-05-31T13:09:00.642Z,3.30
2023-05-31T13:11:27.445Z,3.20
2023-05-31T13:13:54.628Z,3.38
2023-05-31T13:16:22.167Z,3.53
2023-05-31T13:18:48.835Z,4.03
2023-05-31T13:21:15.531Z,3.30
2023-05-31T13:23:42.252Z,2.63
2023-05-31T13:26:09.236Z,2.70
2023-05-31T13:28:36.232Z,2.50
2023-05-31T13:31:03.121Z,3.08
2023-05-31T13:33:31.284Z,3.28
2023-05-31T13:35:58.420Z,2.67
2023-05-31T13:38:25.094Z,2.75
2023-05-31T13:40:54.727Z,3.03
2023-05-31T13:43:23.574Z,3.03
2023-05-31T13:45:50.163Z,2.72
2023-05-31T13:48:17.268Z,2.60
2023-05-31T13:50:44.271Z,2.40
2023-05-31T13:53:10.923Z,2.80
2023-05-31T13:55:42.406Z,2.78
2023-05-31T13:58:13.427Z,2.50
2023-05-31T14:00:45.666Z,2.85
2023-05-31T14:03:15.916Z,2.80
2023-05-31T14:05:44.542Z,2.83
2023-05-31T14:08:11.165Z,2.78
2023-05-31T14:10:37.782Z,2.70
2023-05-31T14:13:04.413Z,3.00
2023-05-31T14:15:31.032Z,2.47
2023-05-31T14:17:57.678Z,2.50
2023-05-31T14:20:24.414Z,2.65
2023-05-31T14:22:51.229Z,2.35
2023-05-31T14:25:17.930Z,2.15
2023-05-31T14:27:44.576Z,2.40
2023-05-31T14:30:11.508Z,2.60
2023-05-31T14:32:38.180Z,2.50
2023-05-31T14:35:05.594Z,2.70
2023-05-31T14:37:39.081Z,2.30
2023-05-31T14:40:11.017Z,2.40
2023-05-31T14:42:37.637Z,1.90
2023-05-31T14:45:04.943Z,2.20
2023-05-31T14:47:34.773Z,2.13
2023-05-31T14:50:01.521Z,2.42
2023-05-31T14:52:28.142Z,1.85
2023-05-31T14:54:54.841Z,2.33
2023-05-31T14:57:21.467Z,2.30
2023-05-31T14:59:48.109Z,2.00
2023-05-31T15:02:14.733Z,1.98
2023-05-31T15:04:41.965Z,1.90
2023-05-31T15:07:08.676Z,1.90
2023-05-31T15:09:36.533Z,1.80
2023-05-31T15:12:03.435Z,1.85
2023-05-31T15:14:30.450Z,1.90
2023-05-31T15:16:57.045Z,2.00
2023-05-31T15:19:23.766Z,1.83
2023-05-31T15:21:50.438Z,2.15
2023-05-31T15:24:17.087Z,2.10
2023-05-31T15:26:43.762Z,2.00
2023-05-31T15:29:10.443Z,1.95
2023-05-31T15:31:37.171Z,1.85
2023-05-31T15:34:04.072Z,2.15
2023-05-31T15:36:30.789Z,2.00
2023-05-31T15:39:01.128Z,2.00
2023-05-31T15:41:27.791Z,2.17
2023-05-31T15:43:54.485Z,2.20
2023-05-31T15:46:21.202Z,1.90
2023-05-31T15:48:47.872Z,1.92
2023-05-31T15:51:14.434Z,2.45
2023-05-31T15:53:41.855Z,2.22
2023-05-31T15:56:08.535Z,2.40
2023-05-31T15:58:35.261Z,2.00
2023-05-31T16:01:02.220Z,2.33
2023-05-31T16:03:30.050Z,2.38
2023-05-31T16:05:56.851Z,2.13
2023-05-31T16:08:23.510Z,2.97
2023-05-31T16:10:50.117Z,2.50
2023-05-31T16:13:17.436Z,2.67
2023-05-31T16:15:44.059Z,2.65
2023-05-31T16:18:10.741Z,2.38
2023-05-31T16:20:37.449Z,2.63
2023-05-31T16:23:04.126Z,2.30
2023-05-31T16:25:32.572Z,2.50
2023-05-31T16:27:59.395Z,2.35
2023-05-31T16:30:25.967Z,2.75
2023-05-31T16:32:53.014Z,2.38
2023-05-31T16:35:19.716Z,2.58
2023-05-31T16:37:46.504Z,2.80
2023-05-31T16:40:13.196Z,2.63
2023-05-31T16:42:39.945Z,2.75
2023-05-31T16:45:06.800Z,2.72
2023-05-31T16:47:33.433Z,2.78
2023-05-31T16:50:00.275Z,2.60
2023-05-31T16:52:26.874Z,3.00
2023-05-31T16:54:53.457Z,3.10
2023-05-31T16:57:20.398Z,3.20
2023-05-31T16:59:47.018Z,2.80
2023-05-31T17:02:13.817Z,3.10
2023-05-31T17:04:40.577Z,3.17
2023-05-31T17:07:09.462Z,4.05
2023-05-31T17:09:36.964Z,3.92
2023-05-31T17:12:03.768Z,3.95
2023-05-31T17:14:30.449Z,3.83
2023-05-31T17:16:57.113Z,4.03
2023-05-31T17:19:23.819Z,4.65
2023-05-31T17:21:50.554Z,4.60
2023-05-31T17:24:17.284Z,4.43
2023-05-31T17:26:46.266Z,4.60
2023-05-31T17:29:12.950Z,5.13
2023-05-31T17:31:39.673Z,5.63
2023-05-31T17:34:06.359Z,5.22
2023-05-31T17:36:33.032Z,5.88
2023-05-31T17:38:59.681Z,6.22
2023-05-31T17:41:26.304Z,5.75
2023-05-31T17:43:52.889Z,6.05
2023-05-31T17:46:19.514Z,5.90
2023-05-31T17:48:46.261Z,6.97
2023-05-31T17:51:12.921Z,6.13
2023-05-31T17:53:39.585Z,6.82
2023-05-31T17:56:06.488Z,5.68
2023-05-31T17:58:33.136Z,5.70
2023-05-31T18:01:00.066Z,5.85
2023-05-31T18:03:27.943Z,5.95
2023-05-31T18:05:54.601Z,5.68
2023-05-31T18:08:22.936Z,5.25
2023-05-31T18:10:49.844Z,5.63
2023-05-31T18:13:16.438Z,6.20
2023-05-31T18:15:43.306Z,5.28
2023-05-31T18:18:10.109Z,5.55
2023-05-31T18:20:36.805Z,5.70
2023-05-31T18:23:03.430Z,4.68
2023-05-31T18:25:30.290Z,4.85
2023-05-31T18:27:57.054Z,6.10
2023-05-31T18:30:24.124Z,5.25
2023-05-31T18:32:50.974Z,5.43
2023-05-31T18:35:19.099Z,5.50
2023-05-31T18:37:46.191Z,5.55
2023-05-31T18:40:12.894Z,5.38
2023-05-31T18:42:39.506Z,5.22
2023-05-31T18:45:06.700Z,5.53
2023-05-31T18:47:33.369Z,5.40
2023-05-31T18:49:59.991Z,5.82
2023-05-31T18:52:27.140Z,5.90
2023-05-31T18:54:53.915Z,5.35
2023-05-31T18:57:21.101Z,6.18
2023-05-31T18:59:47.748Z,7.13
2023-05-31T19:02:15.552Z,7.00
2023-05-31T19:04:42.171Z,8.38
2023-05-31T19:07:09.847Z,7.65
2023-05-31T19:09:36.508Z,7.78
2023-05-31T19:12:03.608Z,8.20
2023-05-31T19:14:30.611Z,7.47
2023-05-31T19:16:57.324Z,8.00
2023-05-31T19:19:23.984Z,6.80
2023-05-31T19:21:50.671Z,6.80
2023-05-31T19:24:17.299Z,6.90
2023-05-31T19:26:43.897Z,6.80
2023-05-31T19:29:12.063Z,6.55
2023-05-31T19:31:38.744Z,6.63
2023-05-31T19:34:05.422Z,7.13
2023-05-31T19:36:32.727Z,5.88
2023-05-31T19:39:02.040Z,5.70
2023-05-31T19:41:28.690Z,5.90
2023-05-31T19:43:55.335Z,5.55
2023-05-31T19:46:26.097Z,5.63
2023-05-31T19:48:53.385Z,5.95
2023-05-31T19:51:20.469Z,5.90
2023-05-31T19:53:47.204Z,5.32
2023-05-31T19:56:15.110Z,4.90
2023-05-31T19:58:41.786Z,4.95
2023-05-31T20:01:09.263Z,4.55
2023-05-31T20:03:36.013Z,4.88
2023-05-31T20:06:03.195Z,4.45
2023-05-31T20:08:30.046Z,4.55
2023-05-31T20:10:56.674Z,4.80
2023-05-31T20:13:23.279Z,4.35
2023-05-31T20:15:49.959Z,4.35
2023-05-31T20:18:19.418Z,4.03
2023-05-31T20:20:46.282Z,4.25
2023-05-31T20:23:12.974Z,4.35
2023-05-31T20:25:39.645Z,4.28
2023-05-31T20:28:06.213Z,4.10
2023-05-31T20:30:32.813Z,4.53
2023-05-31T20:32:59.467Z,4.43
2023-05-31T20:35:26.374Z,4.15
2023-05-31T20:37:53.191Z,3.90
2023-05-31T20:40:19.957Z,4.85
2023-05-31T20:42:46.543Z,4.82
2023-05-31T20:45:13.332Z,4.65
2023-05-31T20:47:40.028Z,4.45
2023-05-31T20:50:09.249Z,4.93
2023-05-31T20:52:36.007Z,4.55
2023-05-31T20:55:03.297Z,5.07
2023-05-31T20:57:30.444Z,5.32
2023-05-31T20:59:58.002Z,4.15
2023-05-31T21:02:24.952Z,4.65
2023-05-31T21:04:52.341Z,4.63
2023-05-31T21:07:18.965Z,4.72
2023-05-31T21:09:45.592Z,4.32
2023-05-31T21:12:12.280Z,4.70
2023-05-31T21:14:38.973Z,4.72
2023-05-31T21:17:05.582Z,5.38
2023-05-31T21:22:16.270Z,5.25
2023-05-31T21:24:42.853Z,4.82
2023-05-31T21:27:09.463Z,5.00
2023-05-31T21:29:36.064Z,4.63
2023-05-31T21:32:02.742Z,4.80
2023-05-31T21:34:29.367Z,4.35
2023-05-31T21:36:56.042Z,4.28
2023-05-31T21:39:24.071Z,4.28
2023-05-31T21:41:50.826Z,4.28
2023-05-31T21:44:17.593Z,3.97
2023-05-31T21:46:44.347Z,4.28
2023-05-31T21:49:11.117Z,4.07
2023-05-31T21:51:37.811Z,4.22
2023-05-31T21:54:04.664Z,3.80
2023-05-31T21:56:32.630Z,4.47
2023-05-31T21:58:59.400Z,4.38
2023-05-31T22:01:26.532Z,4.90
2023-05-31T22:03:53.438Z,4.53
2023-05-31T22:06:20.843Z,4.70
2023-05-31T22:08:48.915Z,4.82
2023-05-31T22:11:16.142Z,4.72
2023-05-31T22:13:42.903Z,5.53
2023-05-31T22:16:17.682Z,5.00
2023-05-31T22:18:47.369Z,5.05
2023-05-31T22:21:15.376Z,4.50
2023-05-31T22:23:41.974Z,5.20
2023-05-31T22:26:09.179Z,5.25
2023-05-31T22:28:36.244Z,5.88
2023-05-31T22:31:03.380Z,4.70
2023-05-31T22:33:30.223Z,5.70
2023-05-31T22:35:56.935Z,6.18
2023-05-31T22:38:23.531Z,6.22
2023-05-31T22:40:50.253Z,5.47
2023-05-31T22:43:16.845Z,6.18
2023-05-31T22:45:43.446Z,7.13
2023-05-31T22:48:10.265Z,6.22
2023-05-31T22:50:39.034Z,6.40
2023-05-31T22:53:08.187Z,7.00
2023-05-31T22:55:35.362Z,7.55
2023-05-31T22:58:02.359Z,7.28
2023-05-31T23:00:29.328Z,6.47
2023-05-31T23:02:57.057Z,7.82
2023-05-31T23:05:24.760Z,7.18
2023-05-31T23:07:51.372Z,7.43
2023-05-31T23:10:18.043Z,6.50
2023-05-31T23:12:44.696Z,7.75
2023-05-31T23:15:12.095Z,7.13
2023-05-31T23:17:40.603Z,6.65
2023-05-31T23:20:13.221Z,7.10
2023-05-31T23:22:43.686Z,6.13
2023-05-31T23:25:11.502Z,6.13
2023-05-31T23:27:38.957Z,6.63
2023-05-31T23:30:06.780Z,5.78
2023-05-31T23:32:33.604Z,6.07
2023-05-31T23:35:00.610Z,6.13
2023-05-31T23:37:27.383Z,6.25
2023-05-31T23:39:54.399Z,5.90
2023-05-31T23:42:21.080Z,5.60
2023-05-31T23:44:47.681Z,5.68
2023-05-31T23:47:14.354Z,5.38
2023-05-31T23:49:40.977Z,5.97
2023-05-31T23:52:07.630Z,5.43
2023-05-31T23:54:34.407Z,5.15
2023-05-31T23:57:01.767Z,5.90
2023-05-31T23:59:28.373Z,7.03
